createdAt,value
2019-05-30T00:05:44.841Z,98933.92
2019-05-30T00:12:03.067Z,98933.66
2019-05-30T00:18:32.758Z,98931.78
2019-05-30T00:24:49.726Z,98938.04
2019-05-30T00:34:55.556Z,98934.45
2019-05-30T00:41:12.383Z,98935.14
2019-05-30T00:47:29.365Z,98942.71
2019-05-30T00:53:59.000Z,98936.03
2019-05-30T01:00:17.634Z,98934.53
2019-05-30T01:06:35.013Z,98934.05
2019-05-30T01:12:52.868Z,98927.70
2019-05-30T01:19:22.125Z,98931.32
2019-05-30T01:25:39.017Z,98930.68
2019-05-30T01:35:43.023Z,98914.34
2019-05-30T01:42:01.848Z,98910.73
2019-05-30T01:48:19.624Z,98907.78
2019-05-30T01:54:51.319Z,98908.61
2019-05-30T02:01:22.640Z,98901.23
2019-05-30T02:07:27.047Z,98901.20
2019-05-30T02:13:44.019Z,98903.82
2019-05-30T02:20:14.485Z,98902.19
2019-05-30T02:26:31.611Z,98904.83
2019-05-30T02:36:36.018Z,98913.14
2019-05-30T02:42:53.616Z,98911.66
2019-05-30T02:49:13.094Z,98914.62
2019-05-30T02:55:42.878Z,98918.67
2019-05-30T03:02:04.357Z,98923.91
2019-05-30T03:08:20.736Z,98922.27
2019-05-30T03:14:38.149Z,98920.97
2019-05-30T03:21:08.569Z,98921.31
2019-05-30T03:27:27.441Z,98920.02
2019-05-30T03:37:31.598Z,98933.10
2019-05-30T03:43:48.718Z,98932.63
2019-05-30T03:50:09.046Z,98937.03
2019-05-30T03:56:44.481Z,98935.20
2019-05-30T04:03:15.672Z,98932.39
2019-05-30T04:09:36.666Z,98929.33
2019-05-30T04:15:54.700Z,98927.52
2019-05-30T04:22:24.169Z,98937.20
2019-05-30T04:28:41.453Z,98936.22
2019-05-30T04:38:45.611Z,98942.74
2019-05-30T04:45:02.445Z,98943.07
2019-05-30T04:51:21.765Z,98943.75
2019-05-30T04:57:52.649Z,98950.42
2019-05-30T05:04:11.450Z,98953.67
2019-05-30T05:10:29.179Z,98956.77
2019-05-30T05:16:46.031Z,98963.31
2019-05-30T05:23:17.271Z,98964.58
2019-05-30T05:29:37.291Z,98968.16
2019-05-30T05:39:41.771Z,98965.67
2019-05-30T05:45:59.223Z,98968.41
2019-05-30T05:52:18.710Z,98974.90
2019-05-30T05:58:48.358Z,98977.16
2019-05-30T06:05:06.162Z,98977.79
2019-05-30T06:11:24.643Z,98984.09
2019-05-30T06:17:41.940Z,98995.11
2019-05-30T06:24:11.249Z,98996.50
2019-05-30T06:30:28.819Z,98997.69
2019-05-30T06:40:35.618Z,99003.05
2019-05-30T06:46:53.096Z,98998.27
2019-05-30T06:53:10.593Z,98995.87
2019-05-30T06:59:40.011Z,98997.95
2019-05-30T07:05:57.523Z,99005.44
2019-05-30T07:12:14.881Z,99007.91
2019-05-30T07:18:36.285Z,99017.27
2019-05-30T07:25:06.706Z,99027.03
2019-05-30T07:31:24.102Z,99032.02
2019-05-30T07:41:28.623Z,99027.97
2019-05-30T07:47:46.314Z,99024.02
2019-05-30T07:54:16.526Z,99022.59
2019-05-30T08:00:34.102Z,99029.66
2019-05-30T08:06:51.540Z,99024.29
2019-05-30T08:13:08.625Z,99028.94
2019-05-30T08:19:38.349Z,99019.58
2019-05-30T08:25:55.913Z,99010.52
2019-05-30T08:32:12.844Z,99012.98
2019-05-30T08:42:17.508Z,99007.34
2019-05-30T08:48:36.140Z,99002.22
2019-05-30T08:55:06.678Z,99011.32
2019-05-30T09:01:25.825Z,99008.53
2019-05-30T09:07:43.026Z,99009.87
2019-05-30T09:14:01.966Z,99016.14
2019-05-30T09:20:31.674Z,99009.03
2019-05-30T09:26:50.400Z,99004.05
2019-05-30T09:33:07.850Z,99002.23
2019-05-30T09:43:11.319Z,98998.12
2019-05-30T09:49:28.240Z,98995.01
2019-05-30T09:55:58.985Z,98999.52
2019-05-30T10:02:16.758Z,98995.27
2019-05-30T10:08:34.666Z,99002.56
2019-05-30T10:14:16.616Z,98994.59
2019-05-30T10:20:47.760Z,99001.91
2019-05-30T10:27:05.738Z,98986.54
2019-05-30T10:33:23.680Z,98986.86
2019-05-30T10:43:28.903Z,98989.61
2019-05-30T10:49:48.045Z,98992.45
2019-05-30T10:56:18.227Z,98993.93
2019-05-30T11:02:37.158Z,98992.17
2019-05-30T11:08:57.983Z,98996.72
2019-05-30T11:14:41.644Z,99000.55
2019-05-30T11:21:11.365Z,98991.17
2019-05-30T11:27:28.782Z,98990.72
2019-05-30T11:33:45.739Z,98992.61
2019-05-30T11:39:27.961Z,98991.74
2019-05-30T11:45:45.600Z,98986.31
2019-05-30T11:52:15.098Z,98987.45
2019-05-30T11:58:32.419Z,98998.53
2019-05-30T12:04:50.754Z,99004.23
2019-05-30T12:11:08.040Z,99003.04
2019-05-30T12:17:37.837Z,99007.84
2019-05-30T12:23:56.019Z,99009.61
2019-05-30T12:30:16.139Z,99004.55
2019-05-30T12:36:33.399Z,99001.02
2019-05-30T12:46:03.958Z,99008.14
2019-05-30T12:52:33.618Z,99001.73
2019-05-30T12:58:51.137Z,98990.96
2019-05-30T13:05:10.533Z,99003.09
2019-05-30T13:11:27.814Z,98997.13
2019-05-30T13:17:58.862Z,99001.93
2019-05-30T13:24:16.316Z,99003.97
2019-05-30T13:30:35.087Z,99005.67
2019-05-30T13:36:52.265Z,99004.27
2019-05-30T13:47:09.316Z,99009.58
2019-05-30T13:53:38.875Z,99009.41
2019-05-30T13:59:56.107Z,99004.27
2019-05-30T14:06:14.929Z,99014.58
2019-05-30T14:12:32.059Z,99008.59
2019-05-30T14:19:02.844Z,99011.11
2019-05-30T14:25:21.104Z,99010.05
2019-05-30T14:31:38.755Z,99006.11
2019-05-30T14:37:59.331Z,99014.95
2019-05-30T14:48:04.485Z,99015.08
2019-05-30T14:54:21.590Z,99010.05
2019-05-30T15:00:51.332Z,99013.25
2019-05-30T15:07:09.309Z,99013.39
2019-05-30T15:13:26.181Z,99009.53
2019-05-30T15:19:43.054Z,99009.61
2019-05-30T15:26:12.621Z,98999.48
2019-05-30T15:32:30.071Z,98999.84
2019-05-30T15:38:25.195Z,98986.38
2019-05-30T15:48:29.209Z,98996.92
2019-05-30T15:54:47.180Z,98994.42
2019-05-30T16:01:04.336Z,98992.31
2019-05-30T16:07:22.103Z,98983.61
2019-05-30T16:13:40.005Z,98986.29
2019-05-30T16:20:13.849Z,98984.34
2019-05-30T16:26:31.858Z,98982.47
2019-05-30T16:32:48.726Z,98978.56
2019-05-30T16:39:18.610Z,98983.36
2019-05-30T16:49:22.950Z,98981.88
2019-05-30T16:55:40.465Z,98981.80
2019-05-30T17:01:58.757Z,98982.30
2019-05-30T17:08:16.538Z,98984.45
2019-05-30T17:14:46.210Z,98980.16
2019-05-30T17:21:03.492Z,98979.94
2019-05-30T17:27:20.511Z,98986.31
2019-05-30T17:33:39.429Z,98988.48
2019-05-30T17:40:10.909Z,98986.55
2019-05-30T17:50:15.138Z,99002.48
2019-05-30T17:56:33.116Z,99000.45
2019-05-30T18:02:50.327Z,99005.45
2019-05-30T18:09:08.965Z,99007.86
2019-05-30T18:15:39.471Z,99011.30
2019-05-30T18:21:56.690Z,99002.77
2019-05-30T18:28:13.426Z,99004.85
2019-05-30T18:34:32.622Z,99002.64
2019-05-30T18:41:11.547Z,99009.38
2019-05-30T18:51:08.033Z,99013.75
2019-05-30T18:57:25.168Z,99015.22
2019-05-30T19:03:07.205Z,99020.98
2019-05-30T19:09:24.872Z,99020.53
2019-05-30T19:15:54.633Z,99024.98
2019-05-30T19:22:11.861Z,99027.67
2019-05-30T19:28:18.702Z,99031.64
2019-05-30T19:34:02.562Z,99035.80
2019-05-30T19:40:19.986Z,99035.10
2019-05-30T19:46:49.315Z,99049.78
2019-05-30T19:53:06.599Z,99058.45
2019-05-30T19:59:23.659Z,99060.41
2019-05-30T20:05:41.523Z,99066.53
2019-05-30T20:12:11.089Z,99072.96
2019-05-30T20:18:28.123Z,99079.34
2019-05-30T20:24:45.891Z,99089.03
2019-05-30T20:31:02.952Z,99086.50
2019-05-30T20:36:58.693Z,99097.85
2019-05-30T20:43:16.017Z,99091.70
2019-05-30T20:53:10.300Z,99093.33
2019-05-30T20:59:27.902Z,99092.43
2019-05-30T21:05:46.809Z,99098.25
2019-05-30T21:12:36.132Z,99099.50
2019-05-30T21:18:38.024Z,99115.07
2019-05-30T21:24:54.985Z,99114.05
2019-05-30T21:31:12.338Z,99120.77
2019-05-30T21:37:05.995Z,99121.86
2019-05-30T21:43:24.526Z,99118.72
2019-05-30T21:53:29.034Z,99121.38
2019-05-30T21:59:46.734Z,99115.77
2019-05-30T22:06:03.581Z,99120.14
2019-05-30T22:12:20.819Z,99114.64
2019-05-30T22:18:50.428Z,99116.36
2019-05-30T22:25:08.387Z,99111.66
2019-05-30T22:31:25.765Z,99112.89
2019-05-30T22:37:19.741Z,99108.38
2019-05-30T22:43:48.948Z,99110.65
2019-05-30T22:53:53.307Z,99109.44
2019-05-30T23:00:11.136Z,99111.67
2019-05-30T23:06:28.358Z,99116.53
2019-05-30T23:12:45.857Z,99117.75
2019-05-30T23:19:15.506Z,99117.21
2019-05-30T23:25:32.468Z,99108.56
2019-05-30T23:31:49.890Z,99107.45
2019-05-30T23:37:31.571Z,99107.58
2019-05-30T23:44:09.645Z,99112.82
2019-05-30T23:50:21.618Z,99106.20
2019-05-30T23:56:27.834Z,99101.66
